sensor_id;sensor_type;location;lat;lon;timestamp;temperature;humidity
12291;DHT22;6208;48.956;9.076;2023-08-24T00:00:56;20.30;99.90
12291;DHT22;6208;48.956;9.076;2023-08-24T00:03:40;20.40;99.90
12291;DHT22;6208;48.956;9.076;2023-08-24T00:06:24;20.50;99.90
12291;DHT22;6208;48.956;9.076;2023-08-24T00:09:08;20.30;99.90
12291;DHT22;6208;48.956;9.076;2023-08-24T00:11:53;20.20;99.90
12291;DHT22;6208;48.956;9.076;2023-08-24T00:14:37;20.10;99.90
12291;DHT22;6208;48.956;9.076;2023-08-24T00:17:21;20.10;99.90
12291;DHT22;6208;48.956;9.076;2023-08-24T00:20:07;20.10;99.90
12291;DHT22;6208;48.956;9.076;2023-08-24T00:22:54;20.20;99.90
12291;DHT22;6208;48.956;9.076;2023-08-24T00:25:38;20.80;99.90
12291;DHT22;6208;48.956;9.076;2023-08-24T00:28:25;20.30;99.90
12291;DHT22;6208;48.956;9.076;2023-08-24T00:31:10;20.20;99.90
12291;DHT22;6208;48.956;9.076;2023-08-24T00:33:54;20.20;99.90
12291;DHT22;6208;48.956;9.076;2023-08-24T00:36:38;20.30;99.90
12291;DHT22;6208;48.956;9.076;2023-08-24T00:39:22;20.40;99.90
12291;DHT22;6208;48.956;9.076;2023-08-24T00:42:06;20.30;99.90
12291;DHT22;6208;48.956;9.076;2023-08-24T00:44:52;20.20;99.90
12291;DHT22;6208;48.956;9.076;2023-08-24T00:47:38;20.10;99.90
12291;DHT22;6208;48.956;9.076;2023-08-24T00:50:23;20.10;99.90
12291;DHT22;6208;48.956;9.076;2023-08-24T00:53:08;20.10;99.90
12291;DHT22;6208;48.956;9.076;2023-08-24T00:55:52;20.10;99.90
12291;DHT22;6208;48.956;9.076;2023-08-24T00:58:38;20.20;99.90
12291;DHT22;6208;48.956;9.076;2023-08-24T01:01:22;20.20;99.90
12291;DHT22;6208;48.956;9.076;2023-08-24T01:04:08;20.20;99.90
12291;DHT22;6208;48.956;9.076;2023-08-24T01:06:55;20.20;99.90
12291;DHT22;6208;48.956;9.076;2023-08-24T01:09:40;20.30;99.90
12291;DHT22;6208;48.956;9.076;2023-08-24T01:12:42;20.30;99.90
12291;DHT22;6208;48.956;9.076;2023-08-24T01:15:37;20.30;99.90
12291;DHT22;6208;48.956;9.076;2023-08-24T01:18:23;20.40;99.90
12291;DHT22;6208;48.956;9.076;2023-08-24T01:21:12;20.50;99.90
12291;DHT22;6208;48.956;9.076;2023-08-24T01:24:14;20.70;99.90
12291;DHT22;6208;48.956;9.076;2023-08-24T01:27:01;20.70;99.90
12291;DHT22;6208;48.956;9.076;2023-08-24T01:29:46;20.80;99.90
12291;DHT22;6208;48.956;9.076;2023-08-24T01:32:31;20.80;99.90
12291;DHT22;6208;48.956;9.076;2023-08-24T01:35:16;20.80;99.90
12291;DHT22;6208;48.956;9.076;2023-08-24T01:38:00;20.80;99.90
12291;DHT22;6208;48.956;9.076;2023-08-24T01:40:57;20.70;99.90
12291;DHT22;6208;48.956;9.076;2023-08-24T01:43:46;20.50;99.90
12291;DHT22;6208;48.956;9.076;2023-08-24T01:46:33;20.30;99.90
12291;DHT22;6208;48.956;9.076;2023-08-24T01:49:18;20.20;99.90
12291;DHT22;6208;48.956;9.076;2023-08-24T01:52:03;20.00;99.90
12291;DHT22;6208;48.956;9.076;2023-08-24T01:54:48;20.00;99.90
12291;DHT22;6208;48.956;9.076;2023-08-24T01:57:32;19.90;99.90
12291;DHT22;6208;48.956;9.076;2023-08-24T02:00:17;19.90;99.90
12291;DHT22;6208;48.956;9.076;2023-08-24T02:03:01;20.00;99.90
12291;DHT22;6208;48.956;9.076;2023-08-24T02:05:45;20.00;99.90
12291;DHT22;6208;48.956;9.076;2023-08-24T02:08:28;19.90;99.90
12291;DHT22;6208;48.956;9.076;2023-08-24T02:11:14;19.80;99.90
12291;DHT22;6208;48.956;9.076;2023-08-24T02:13:57;19.70;99.90
12291;DHT22;6208;48.956;9.076;2023-08-24T02:16:42;19.60;99.90
12291;DHT22;6208;48.956;9.076;2023-08-24T02:19:26;19.60;99.90
12291;DHT22;6208;48.956;9.076;2023-08-24T02:22:10;19.50;99.90
12291;DHT22;6208;48.956;9.076;2023-08-24T02:24:54;19.50;99.90
12291;DHT22;6208;48.956;9.076;2023-08-24T02:27:38;19.50;99.90
12291;DHT22;6208;48.956;9.076;2023-08-24T02:30:22;19.50;99.90
12291;DHT22;6208;48.956;9.076;2023-08-24T02:33:06;19.60;99.90
12291;DHT22;6208;48.956;9.076;2023-08-24T02:35:51;19.60;99.90
12291;DHT22;6208;48.956;9.076;2023-08-24T02:38:35;19.60;99.90
12291;DHT22;6208;48.956;9.076;2023-08-24T02:41:20;19.50;99.90
12291;DHT22;6208;48.956;9.076;2023-08-24T02:44:04;19.50;99.90
12291;DHT22;6208;48.956;9.076;2023-08-24T02:46:48;19.50;99.90
12291;DHT22;6208;48.956;9.076;2023-08-24T02:49:33;19.60;99.90
12291;DHT22;6208;48.956;9.076;2023-08-24T02:52:17;19.70;99.90
12291;DHT22;6208;48.956;9.076;2023-08-24T02:55:01;19.70;99.90
12291;DHT22;6208;48.956;9.076;2023-08-24T02:57:45;19.70;99.90
12291;DHT22;6208;48.956;9.076;2023-08-24T03:00:29;19.80;99.90
12291;DHT22;6208;48.956;9.076;2023-08-24T03:03:14;19.80;99.90
12291;DHT22;6208;48.956;9.076;2023-08-24T03:06:04;19.80;99.90
12291;DHT22;6208;48.956;9.076;2023-08-24T03:08:49;19.70;99.90
12291;DHT22;6208;48.956;9.076;2023-08-24T03:11:33;19.60;99.90
12291;DHT22;6208;48.956;9.076;2023-08-24T03:14:17;19.60;99.90
12291;DHT22;6208;48.956;9.076;2023-08-24T03:17:02;19.50;99.90
12291;DHT22;6208;48.956;9.076;2023-08-24T03:19:48;19.50;99.90
12291;DHT22;6208;48.956;9.076;2023-08-24T03:22:32;19.50;99.90
12291;DHT22;6208;48.956;9.076;2023-08-24T03:25:16;19.60;99.90
12291;DHT22;6208;48.956;9.076;2023-08-24T03:28:01;19.70;99.90
12291;DHT22;6208;48.956;9.076;2023-08-24T03:30:47;19.80;99.90
12291;DHT22;6208;48.956;9.076;2023-08-24T03:33:32;19.90;99.90
12291;DHT22;6208;48.956;9.076;2023-08-24T03:36:18;20.00;99.90
12291;DHT22;6208;48.956;9.076;2023-08-24T03:39:03;20.10;99.90
12291;DHT22;6208;48.956;9.076;2023-08-24T03:41:47;20.20;99.90
12291;DHT22;6208;48.956;9.076;2023-08-24T03:44:31;20.20;99.90
12291;DHT22;6208;48.956;9.076;2023-08-24T03:47:15;20.20;99.90
12291;DHT22;6208;48.956;9.076;2023-08-24T03:49:59;20.20;99.90
12291;DHT22;6208;48.956;9.076;2023-08-24T03:52:44;20.30;99.90
12291;DHT22;6208;48.956;9.076;2023-08-24T03:55:28;20.30;99.90
12291;DHT22;6208;48.956;9.076;2023-08-24T03:58:12;20.30;99.90
12291;DHT22;6208;48.956;9.076;2023-08-24T04:00:56;20.30;99.90
12291;DHT22;6208;48.956;9.076;2023-08-24T04:03:41;20.30;99.90
12291;DHT22;6208;48.956;9.076;2023-08-24T04:06:25;20.30;99.90
12291;DHT22;6208;48.956;9.076;2023-08-24T04:09:09;20.30;99.90
12291;DHT22;6208;48.956;9.076;2023-08-24T04:11:53;20.30;99.90
12291;DHT22;6208;48.956;9.076;2023-08-24T04:14:37;20.30;99.90
12291;DHT22;6208;48.956;9.076;2023-08-24T04:17:21;20.30;99.90
12291;DHT22;6208;48.956;9.076;2023-08-24T04:20:06;20.30;99.90
12291;DHT22;6208;48.956;9.076;2023-08-24T04:22:52;20.30;99.90
12291;DHT22;6208;48.956;9.076;2023-08-24T04:25:39;20.30;99.90
12291;DHT22;6208;48.956;9.076;2023-08-24T04:28:24;20.30;99.90
12291;DHT22;6208;48.956;9.076;2023-08-24T04:31:08;20.30;99.90
12291;DHT22;6208;48.956;9.076;2023-08-24T04:33:52;20.30;99.90
12291;DHT22;6208;48.956;9.076;2023-08-24T04:36:36;20.20;99.90
12291;DHT22;6208;48.956;9.076;2023-08-24T04:39:20;20.20;99.90
12291;DHT22;6208;48.956;9.076;2023-08-24T04:42:05;20.30;99.90
12291;DHT22;6208;48.956;9.076;2023-08-24T04:44:51;20.30;99.90
12291;DHT22;6208;48.956;9.076;2023-08-24T04:47:35;20.40;99.90
12291;DHT22;6208;48.956;9.076;2023-08-24T04:50:19;20.40;99.90
12291;DHT22;6208;48.956;9.076;2023-08-24T04:53:03;20.50;99.90
12291;DHT22;6208;48.956;9.076;2023-08-24T04:55:47;20.50;99.90
12291;DHT22;6208;48.956;9.076;2023-08-24T04:58:33;20.50;99.90
12291;DHT22;6208;48.956;9.076;2023-08-24T05:01:18;20.50;99.90
12291;DHT22;6208;48.956;9.076;2023-08-24T05:04:02;20.50;99.90
12291;DHT22;6208;48.956;9.076;2023-08-24T05:06:46;20.40;99.90
12291;DHT22;6208;48.956;9.076;2023-08-24T05:09:30;20.30;99.90
12291;DHT22;6208;48.956;9.076;2023-08-24T05:12:14;20.30;99.90
12291;DHT22;6208;48.956;9.076;2023-08-24T05:14:58;20.30;99.90
12291;DHT22;6208;48.956;9.076;2023-08-24T05:17:43;20.40;99.90
12291;DHT22;6208;48.956;9.076;2023-08-24T05:20:28;20.30;99.90
12291;DHT22;6208;48.956;9.076;2023-08-24T05:23:12;20.30;99.90
12291;DHT22;6208;48.956;9.076;2023-08-24T05:25:57;20.30;99.90
12291;DHT22;6208;48.956;9.076;2023-08-24T05:28:42;20.30;99.90
12291;DHT22;6208;48.956;9.076;2023-08-24T05:31:26;20.30;99.90
12291;DHT22;6208;48.956;9.076;2023-08-24T05:34:09;20.30;99.90
12291;DHT22;6208;48.956;9.076;2023-08-24T05:36:54;20.30;99.90
12291;DHT22;6208;48.956;9.076;2023-08-24T05:39:38;20.40;99.90
12291;DHT22;6208;48.956;9.076;2023-08-24T05:42:22;20.40;99.90
12291;DHT22;6208;48.956;9.076;2023-08-24T05:45:07;20.40;99.90
12291;DHT22;6208;48.956;9.076;2023-08-24T05:47:51;20.40;99.90
12291;DHT22;6208;48.956;9.076;2023-08-24T05:50:35;20.50;99.90
12291;DHT22;6208;48.956;9.076;2023-08-24T05:53:22;20.50;99.90
12291;DHT22;6208;48.956;9.076;2023-08-24T05:56:06;20.50;99.90
12291;DHT22;6208;48.956;9.076;2023-08-24T05:58:50;20.60;99.90
12291;DHT22;6208;48.956;9.076;2023-08-24T06:01:34;20.60;99.90
12291;DHT22;6208;48.956;9.076;2023-08-24T06:04:22;20.60;99.90
12291;DHT22;6208;48.956;9.076;2023-08-24T06:07:06;20.70;99.90
12291;DHT22;6208;48.956;9.076;2023-08-24T06:09:50;20.70;99.90
12291;DHT22;6208;48.956;9.076;2023-08-24T06:12:34;20.80;99.90
12291;DHT22;6208;48.956;9.076;2023-08-24T06:15:18;20.90;99.90
12291;DHT22;6208;48.956;9.076;2023-08-24T06:18:03;21.00;99.90
12291;DHT22;6208;48.956;9.076;2023-08-24T06:20:48;21.10;99.90
12291;DHT22;6208;48.956;9.076;2023-08-24T06:23:33;21.30;99.90
12291;DHT22;6208;48.956;9.076;2023-08-24T06:26:17;21.30;99.90
12291;DHT22;6208;48.956;9.076;2023-08-24T06:29:02;21.40;99.90
12291;DHT22;6208;48.956;9.076;2023-08-24T06:31:47;21.40;99.90
12291;DHT22;6208;48.956;9.076;2023-08-24T06:34:31;21.50;99.90
12291;DHT22;6208;48.956;9.076;2023-08-24T06:37:15;21.60;99.90
12291;DHT22;6208;48.956;9.076;2023-08-24T06:39:59;21.70;99.90
12291;DHT22;6208;48.956;9.076;2023-08-24T06:42:43;21.80;99.90
12291;DHT22;6208;48.956;9.076;2023-08-24T06:45:27;21.80;99.90
12291;DHT22;6208;48.956;9.076;2023-08-24T06:48:11;21.80;99.90
12291;DHT22;6208;48.956;9.076;2023-08-24T06:50:55;21.80;99.90
12291;DHT22;6208;48.956;9.076;2023-08-24T06:53:39;21.90;99.90
12291;DHT22;6208;48.956;9.076;2023-08-24T06:56:23;21.90;99.90
12291;DHT22;6208;48.956;9.076;2023-08-24T06:59:08;21.90;99.90
12291;DHT22;6208;48.956;9.076;2023-08-24T07:01:53;22.00;99.90
12291;DHT22;6208;48.956;9.076;2023-08-24T07:04:37;22.10;99.90
12291;DHT22;6208;48.956;9.076;2023-08-24T07:07:24;22.10;99.90
12291;DHT22;6208;48.956;9.076;2023-08-24T07:10:08;22.10;99.90
12291;DHT22;6208;48.956;9.076;2023-08-24T07:12:53;22.10;99.90
12291;DHT22;6208;48.956;9.076;2023-08-24T07:15:37;22.20;99.90
12291;DHT22;6208;48.956;9.076;2023-08-24T07:18:21;22.20;99.90
12291;DHT22;6208;48.956;9.076;2023-08-24T07:21:06;22.30;99.90
12291;DHT22;6208;48.956;9.076;2023-08-24T07:23:50;22.30;99.90
12291;DHT22;6208;48.956;9.076;2023-08-24T07:26:34;22.40;99.90
12291;DHT22;6208;48.956;9.076;2023-08-24T07:29:19;22.40;99.90
12291;DHT22;6208;48.956;9.076;2023-08-24T07:32:04;22.50;99.90
12291;DHT22;6208;48.956;9.076;2023-08-24T07:34:48;22.50;99.90
12291;DHT22;6208;48.956;9.076;2023-08-24T07:37:32;22.60;99.90
12291;DHT22;6208;48.956;9.076;2023-08-24T07:40:16;22.60;99.90
12291;DHT22;6208;48.956;9.076;2023-08-24T07:43:00;22.60;99.90
12291;DHT22;6208;48.956;9.076;2023-08-24T07:45:44;22.70;99.90
12291;DHT22;6208;48.956;9.076;2023-08-24T07:48:29;22.80;99.90
12291;DHT22;6208;48.956;9.076;2023-08-24T07:51:14;22.90;99.90
12291;DHT22;6208;48.956;9.076;2023-08-24T07:53:58;23.00;99.90
12291;DHT22;6208;48.956;9.076;2023-08-24T07:56:42;23.00;99.90
12291;DHT22;6208;48.956;9.076;2023-08-24T07:59:26;23.20;99.90
12291;DHT22;6208;48.956;9.076;2023-08-24T08:02:11;23.30;99.90
12291;DHT22;6208;48.956;9.076;2023-08-24T08:04:58;23.30;99.90
12291;DHT22;6208;48.956;9.076;2023-08-24T08:07:43;23.40;99.90
12291;DHT22;6208;48.956;9.076;2023-08-24T08:10:27;23.60;99.90
12291;DHT22;6208;48.956;9.076;2023-08-24T08:13:11;23.60;99.90
12291;DHT22;6208;48.956;9.076;2023-08-24T08:16:06;23.70;99.90
12291;DHT22;6208;48.956;9.076;2023-08-24T08:18:50;23.80;99.90
12291;DHT22;6208;48.956;9.076;2023-08-24T08:21:34;23.80;99.90
12291;DHT22;6208;48.956;9.076;2023-08-24T08:24:18;24.00;99.90
12291;DHT22;6208;48.956;9.076;2023-08-24T08:27:02;24.10;99.90
12291;DHT22;6208;48.956;9.076;2023-08-24T08:29:47;24.20;99.90
12291;DHT22;6208;48.956;9.076;2023-08-24T08:32:32;24.30;99.90
12291;DHT22;6208;48.956;9.076;2023-08-24T08:35:16;24.40;99.90
12291;DHT22;6208;48.956;9.076;2023-08-24T08:38:00;24.60;99.90
12291;DHT22;6208;48.956;9.076;2023-08-24T08:40:46;24.70;99.90
12291;DHT22;6208;48.956;9.076;2023-08-24T08:43:31;24.80;99.90
12291;DHT22;6208;48.956;9.076;2023-08-24T08:46:16;24.90;99.90
12291;DHT22;6208;48.956;9.076;2023-08-24T08:49:00;24.90;99.90
12291;DHT22;6208;48.956;9.076;2023-08-24T08:51:45;25.10;99.90
12291;DHT22;6208;48.956;9.076;2023-08-24T08:54:29;25.20;99.90
12291;DHT22;6208;48.956;9.076;2023-08-24T08:57:14;25.30;99.90
12291;DHT22;6208;48.956;9.076;2023-08-24T09:00:00;25.50;99.90
12291;DHT22;6208;48.956;9.076;2023-08-24T09:02:45;25.70;99.90
12291;DHT22;6208;48.956;9.076;2023-08-24T09:05:32;25.80;99.90
12291;DHT22;6208;48.956;9.076;2023-08-24T09:08:17;26.00;99.90
12291;DHT22;6208;48.956;9.076;2023-08-24T09:11:01;26.10;99.90
12291;DHT22;6208;48.956;9.076;2023-08-24T09:13:46;26.30;99.90
12291;DHT22;6208;48.956;9.076;2023-08-24T09:16:31;26.40;99.90
12291;DHT22;6208;48.956;9.076;2023-08-24T09:19:16;26.60;99.90
12291;DHT22;6208;48.956;9.076;2023-08-24T09:22:01;26.70;99.90
12291;DHT22;6208;48.956;9.076;2023-08-24T09:24:48;26.90;99.90
12291;DHT22;6208;48.956;9.076;2023-08-24T09:27:34;27.10;99.90
12291;DHT22;6208;48.956;9.076;2023-08-24T09:30:19;27.30;99.90
12291;DHT22;6208;48.956;9.076;2023-08-24T09:35:53;27.60;99.90
12291;DHT22;6208;48.956;9.076;2023-08-24T09:38:37;27.90;99.90
12291;DHT22;6208;48.956;9.076;2023-08-24T09:41:45;28.00;99.90
12291;DHT22;6208;48.956;9.076;2023-08-24T09:44:30;28.20;99.90
12291;DHT22;6208;48.956;9.076;2023-08-24T09:47:14;28.40;99.90
12291;DHT22;6208;48.956;9.076;2023-08-24T09:50:00;28.60;99.90
12291;DHT22;6208;48.956;9.076;2023-08-24T09:52:44;28.70;99.90
12291;DHT22;6208;48.956;9.076;2023-08-24T09:55:34;28.80;99.90
12291;DHT22;6208;48.956;9.076;2023-08-24T09:58:22;28.90;99.90
12291;DHT22;6208;48.956;9.076;2023-08-24T10:01:06;29.00;99.90
12291;DHT22;6208;48.956;9.076;2023-08-24T10:03:51;29.10;99.90
12291;DHT22;6208;48.956;9.076;2023-08-24T10:06:39;29.30;99.90
12291;DHT22;6208;48.956;9.076;2023-08-24T10:09:33;29.50;99.90
12291;DHT22;6208;48.956;9.076;2023-08-24T10:12:20;29.70;99.90
12291;DHT22;6208;48.956;9.076;2023-08-24T10:15:07;29.80;99.90
12291;DHT22;6208;48.956;9.076;2023-08-24T10:17:53;29.90;99.90
12291;DHT22;6208;48.956;9.076;2023-08-24T10:20:39;30.10;99.90
12291;DHT22;6208;48.956;9.076;2023-08-24T10:23:24;30.20;99.90
12291;DHT22;6208;48.956;9.076;2023-08-24T10:26:12;30.30;99.90
12291;DHT22;6208;48.956;9.076;2023-08-24T10:28:57;30.40;99.90
12291;DHT22;6208;48.956;9.076;2023-08-24T10:31:43;30.50;99.90
12291;DHT22;6208;48.956;9.076;2023-08-24T10:34:27;30.70;99.90
12291;DHT22;6208;48.956;9.076;2023-08-24T10:37:12;30.70;99.40
12291;DHT22;6208;48.956;9.076;2023-08-24T10:39:56;30.80;99.50
12291;DHT22;6208;48.956;9.076;2023-08-24T10:42:46;30.90;98.80
12291;DHT22;6208;48.956;9.076;2023-08-24T10:45:55;31.00;99.60
12291;DHT22;6208;48.956;9.076;2023-08-24T10:51:31;31.30;99.90
12291;DHT22;6208;48.956;9.076;2023-08-24T10:54:15;31.40;98.60
12291;DHT22;6208;48.956;9.076;2023-08-24T10:57:03;31.40;97.90
12291;DHT22;6208;48.956;9.076;2023-08-24T11:00:03;31.40;98.90
12291;DHT22;6208;48.956;9.076;2023-08-24T11:02:51;31.50;97.80
12291;DHT22;6208;48.956;9.076;2023-08-24T11:05:35;31.50;97.90
12291;DHT22;6208;48.956;9.076;2023-08-24T11:08:19;31.50;99.70
12291;DHT22;6208;48.956;9.076;2023-08-24T11:11:18;31.70;99.90
12291;DHT22;6208;48.956;9.076;2023-08-24T11:14:19;31.70;98.10
12291;DHT22;6208;48.956;9.076;2023-08-24T11:17:19;32.00;97.70
12291;DHT22;6208;48.956;9.076;2023-08-24T11:20:04;32.10;97.60
12291;DHT22;6208;48.956;9.076;2023-08-24T11:22:49;32.30;97.80
12291;DHT22;6208;48.956;9.076;2023-08-24T11:25:36;32.40;97.90
12291;DHT22;6208;48.956;9.076;2023-08-24T11:28:20;32.50;98.10
12291;DHT22;6208;48.956;9.076;2023-08-24T11:31:05;32.60;97.30
12291;DHT22;6208;48.956;9.076;2023-08-24T11:33:54;32.70;96.50
12291;DHT22;6208;48.956;9.076;2023-08-24T11:36:43;32.90;97.50
12291;DHT22;6208;48.956;9.076;2023-08-24T11:39:27;32.90;98.20
12291;DHT22;6208;48.956;9.076;2023-08-24T11:42:15;33.00;95.30
12291;DHT22;6208;48.956;9.076;2023-08-24T11:44:59;33.20;95.20
12291;DHT22;6208;48.956;9.076;2023-08-24T11:47:43;33.20;95.00
12291;DHT22;6208;48.956;9.076;2023-08-24T11:50:28;33.30;94.90
12291;DHT22;6208;48.956;9.076;2023-08-24T11:53:12;33.50;95.90
12291;DHT22;6208;48.956;9.076;2023-08-24T11:55:56;33.60;95.40
12291;DHT22;6208;48.956;9.076;2023-08-24T11:58:41;33.80;94.50
12291;DHT22;6208;48.956;9.076;2023-08-24T12:01:26;34.00;93.90
12291;DHT22;6208;48.956;9.076;2023-08-24T12:04:11;34.10;92.50
12291;DHT22;6208;48.956;9.076;2023-08-24T12:06:56;34.20;91.90
12291;DHT22;6208;48.956;9.076;2023-08-24T12:09:41;34.30;92.00
12291;DHT22;6208;48.956;9.076;2023-08-24T12:12:27;34.40;91.50
12291;DHT22;6208;48.956;9.076;2023-08-24T12:15:16;34.50;91.20
12291;DHT22;6208;48.956;9.076;2023-08-24T12:18:11;34.70;91.70
12291;DHT22;6208;48.956;9.076;2023-08-24T12:20:56;34.80;91.90
12291;DHT22;6208;48.956;9.076;2023-08-24T12:23:41;34.80;90.50
12291;DHT22;6208;48.956;9.076;2023-08-24T12:26:28;34.90;91.20
12291;DHT22;6208;48.956;9.076;2023-08-24T12:29:12;34.90;92.80
12291;DHT22;6208;48.956;9.076;2023-08-24T12:31:57;34.90;91.40
12291;DHT22;6208;48.956;9.076;2023-08-24T12:34:42;34.80;89.30
12291;DHT22;6208;48.956;9.076;2023-08-24T12:37:29;34.80;91.40
12291;DHT22;6208;48.956;9.076;2023-08-24T12:40:14;34.80;90.30
12291;DHT22;6208;48.956;9.076;2023-08-24T12:42:59;34.80;90.30
12291;DHT22;6208;48.956;9.076;2023-08-24T12:45:43;34.80;90.20
12291;DHT22;6208;48.956;9.076;2023-08-24T12:48:27;34.90;90.90
12291;DHT22;6208;48.956;9.076;2023-08-24T12:51:11;35.10;90.50
12291;DHT22;6208;48.956;9.076;2023-08-24T12:53:56;35.20;90.60
12291;DHT22;6208;48.956;9.076;2023-08-24T12:56:40;35.20;90.20
12291;DHT22;6208;48.956;9.076;2023-08-24T12:59:27;35.20;92.00
12291;DHT22;6208;48.956;9.076;2023-08-24T13:02:11;35.10;87.80
12291;DHT22;6208;48.956;9.076;2023-08-24T13:04:55;35.00;86.40
12291;DHT22;6208;48.956;9.076;2023-08-24T13:07:39;35.00;90.50
12291;DHT22;6208;48.956;9.076;2023-08-24T13:10:23;35.00;87.30
12291;DHT22;6208;48.956;9.076;2023-08-24T13:13:09;35.00;89.30
12291;DHT22;6208;48.956;9.076;2023-08-24T13:15:53;35.10;87.30
12291;DHT22;6208;48.956;9.076;2023-08-24T13:18:37;35.20;89.50
12291;DHT22;6208;48.956;9.076;2023-08-24T13:21:22;35.20;89.70
12291;DHT22;6208;48.956;9.076;2023-08-24T13:24:06;35.20;88.10
12291;DHT22;6208;48.956;9.076;2023-08-24T13:26:51;35.30;90.50
12291;DHT22;6208;48.956;9.076;2023-08-24T13:29:38;35.30;90.60
12291;DHT22;6208;48.956;9.076;2023-08-24T13:32:22;35.40;92.20
12291;DHT22;6208;48.956;9.076;2023-08-24T13:35:07;35.50;89.30
12291;DHT22;6208;48.956;9.076;2023-08-24T13:37:52;35.60;86.60
12291;DHT22;6208;48.956;9.076;2023-08-24T13:40:37;35.70;88.70
12291;DHT22;6208;48.956;9.076;2023-08-24T13:43:21;35.80;85.60
12291;DHT22;6208;48.956;9.076;2023-08-24T13:46:06;36.40;90.20
12291;DHT22;6208;48.956;9.076;2023-08-24T13:48:50;36.10;89.20
12291;DHT22;6208;48.956;9.076;2023-08-24T13:51:34;36.20;81.90
12291;DHT22;6208;48.956;9.076;2023-08-24T13:54:19;36.30;84.40
12291;DHT22;6208;48.956;9.076;2023-08-24T13:57:04;36.40;82.00
12291;DHT22;6208;48.956;9.076;2023-08-24T13:59:48;36.40;82.30
12291;DHT22;6208;48.956;9.076;2023-08-24T14:02:32;36.50;83.10
12291;DHT22;6208;48.956;9.076;2023-08-24T14:05:16;36.50;80.60
12291;DHT22;6208;48.956;9.076;2023-08-24T14:08:00;36.50;78.90
12291;DHT22;6208;48.956;9.076;2023-08-24T14:10:44;36.50;83.50
12291;DHT22;6208;48.956;9.076;2023-08-24T14:13:29;36.50;83.40
12291;DHT22;6208;48.956;9.076;2023-08-24T14:16:14;36.20;84.90
12291;DHT22;6208;48.956;9.076;2023-08-24T14:18:59;36.00;87.70
12291;DHT22;6208;48.956;9.076;2023-08-24T14:21:43;35.70;88.50
12291;DHT22;6208;48.956;9.076;2023-08-24T14:24:28;35.50;90.60
12291;DHT22;6208;48.956;9.076;2023-08-24T14:27:13;35.30;89.40
12291;DHT22;6208;48.956;9.076;2023-08-24T14:29:58;35.10;86.20
12291;DHT22;6208;48.956;9.076;2023-08-24T14:32:41;34.90;86.70
12291;DHT22;6208;48.956;9.076;2023-08-24T14:35:25;34.80;89.00
12291;DHT22;6208;48.956;9.076;2023-08-24T14:38:09;34.60;86.70
12291;DHT22;6208;48.956;9.076;2023-08-24T14:40:54;34.50;87.60
12291;DHT22;6208;48.956;9.076;2023-08-24T14:43:38;34.40;87.20
12291;DHT22;6208;48.956;9.076;2023-08-24T14:46:22;34.20;87.40
12291;DHT22;6208;48.956;9.076;2023-08-24T14:49:06;34.00;88.80
12291;DHT22;6208;48.956;9.076;2023-08-24T14:51:52;33.70;89.60
12291;DHT22;6208;48.956;9.076;2023-08-24T14:54:36;33.40;90.60
12291;DHT22;6208;48.956;9.076;2023-08-24T14:57:20;33.00;91.40
12291;DHT22;6208;48.956;9.076;2023-08-24T15:00:04;32.80;93.90
12291;DHT22;6208;48.956;9.076;2023-08-24T15:02:49;32.00;94.90
12291;DHT22;6208;48.956;9.076;2023-08-24T15:05:43;30.60;99.70
12291;DHT22;6208;48.956;9.076;2023-08-24T15:08:31;28.30;99.90
12291;DHT22;6208;48.956;9.076;2023-08-24T15:11:17;26.40;99.90
12291;DHT22;6208;48.956;9.076;2023-08-24T15:14:02;25.00;99.90
12291;DHT22;6208;48.956;9.076;2023-08-24T15:16:46;24.70;99.90
12291;DHT22;6208;48.956;9.076;2023-08-24T15:19:30;24.50;99.90
12291;DHT22;6208;48.956;9.076;2023-08-24T15:22:14;24.50;99.90
12291;DHT22;6208;48.956;9.076;2023-08-24T15:24:59;24.60;99.90
12291;DHT22;6208;48.956;9.076;2023-08-24T15:27:44;24.60;99.90
12291;DHT22;6208;48.956;9.076;2023-08-24T15:30:28;24.70;99.90
12291;DHT22;6208;48.956;9.076;2023-08-24T15:33:12;24.60;99.90
12291;DHT22;6208;48.956;9.076;2023-08-24T15:35:56;24.60;99.90
12291;DHT22;6208;48.956;9.076;2023-08-24T15:38:40;24.50;99.90
12291;DHT22;6208;48.956;9.076;2023-08-24T15:41:24;24.30;99.90
12291;DHT22;6208;48.956;9.076;2023-08-24T15:44:09;24.20;99.90
12291;DHT22;6208;48.956;9.076;2023-08-24T15:46:53;24.20;99.90
12291;DHT22;6208;48.956;9.076;2023-08-24T15:49:37;24.00;99.90
12291;DHT22;6208;48.956;9.076;2023-08-24T15:52:21;24.00;99.90
12291;DHT22;6208;48.956;9.076;2023-08-24T15:55:05;24.00;99.90
12291;DHT22;6208;48.956;9.076;2023-08-24T15:57:49;24.10;99.90
12291;DHT22;6208;48.956;9.076;2023-08-24T16:00:34;24.00;99.90
12291;DHT22;6208;48.956;9.076;2023-08-24T16:03:18;24.00;99.90
12291;DHT22;6208;48.956;9.076;2023-08-24T16:06:02;24.10;99.90
12291;DHT22;6208;48.956;9.076;2023-08-24T16:08:47;24.00;99.90
12291;DHT22;6208;48.956;9.076;2023-08-24T16:11:31;24.00;99.90
12291;DHT22;6208;48.956;9.076;2023-08-24T16:14:15;24.10;99.90
12291;DHT22;6208;48.956;9.076;2023-08-24T16:16:59;24.20;99.90
12291;DHT22;6208;48.956;9.076;2023-08-24T16:19:44;24.30;99.90
12291;DHT22;6208;48.956;9.076;2023-08-24T16:22:28;24.30;99.90
12291;DHT22;6208;48.956;9.076;2023-08-24T16:25:12;24.30;99.90
12291;DHT22;6208;48.956;9.076;2023-08-24T16:27:56;24.40;99.90
12291;DHT22;6208;48.956;9.076;2023-08-24T16:30:41;24.40;99.90
12291;DHT22;6208;48.956;9.076;2023-08-24T16:33:25;24.30;99.90
12291;DHT22;6208;48.956;9.076;2023-08-24T16:36:09;24.40;99.90
12291;DHT22;6208;48.956;9.076;2023-08-24T16:38:55;24.40;99.90
12291;DHT22;6208;48.956;9.076;2023-08-24T16:41:39;24.40;99.90
12291;DHT22;6208;48.956;9.076;2023-08-24T16:44:23;24.50;99.90
12291;DHT22;6208;48.956;9.076;2023-08-24T16:47:07;24.50;99.90
12291;DHT22;6208;48.956;9.076;2023-08-24T16:49:51;24.50;99.90
12291;DHT22;6208;48.956;9.076;2023-08-24T16:52:35;24.60;99.90
12291;DHT22;6208;48.956;9.076;2023-08-24T16:55:20;24.70;99.90
12291;DHT22;6208;48.956;9.076;2023-08-24T16:58:04;24.60;99.90
12291;DHT22;6208;48.956;9.076;2023-08-24T17:00:48;24.60;99.90
12291;DHT22;6208;48.956;9.076;2023-08-24T17:03:32;24.60;99.90
12291;DHT22;6208;48.956;9.076;2023-08-24T17:06:16;24.50;99.90
12291;DHT22;6208;48.956;9.076;2023-08-24T17:09:01;24.40;99.90
12291;DHT22;6208;48.956;9.076;2023-08-24T17:11:46;24.40;99.90
12291;DHT22;6208;48.956;9.076;2023-08-24T17:14:30;24.30;99.90
12291;DHT22;6208;48.956;9.076;2023-08-24T17:17:14;24.30;99.90
12291;DHT22;6208;48.956;9.076;2023-08-24T17:19:59;24.20;99.90
12291;DHT22;6208;48.956;9.076;2023-08-24T17:22:43;24.20;99.90
12291;DHT22;6208;48.956;9.076;2023-08-24T17:25:28;24.10;99.90
12291;DHT22;6208;48.956;9.076;2023-08-24T17:28:12;24.00;99.90
12291;DHT22;6208;48.956;9.076;2023-08-24T17:30:56;24.00;99.90
12291;DHT22;6208;48.956;9.076;2023-08-24T17:33:40;24.00;99.90
12291;DHT22;6208;48.956;9.076;2023-08-24T17:36:24;24.00;99.90
12291;DHT22;6208;48.956;9.076;2023-08-24T17:39:08;24.00;99.90
12291;DHT22;6208;48.956;9.076;2023-08-24T17:41:53;24.10;99.90
12291;DHT22;6208;48.956;9.076;2023-08-24T17:44:37;24.30;99.90